Time;durP1;ratioP1;P1;durP2;ratioP2;P2;SDS_P1;SDS_P2;PMS_P1;PMS_P2;Temp;Humidity;BMP_temperature;BMP_pressure;BME280_temperature;BME280_humidity;BME280_pressure;Samples;Min_cycle;Max_cycle;Signal;HPM_P1;HPM_P2
2020/12/23 00:00:10;;;;;;;21.37;13.67;;;13.10;99.90;;;;;;5114301;28;20203;-79
2020/12/23 00:02:36;;;;;;;14.57;13.07;;;13.10;99.90;;;;;;5110383;28;20184;-78
2020/12/23 00:05:06;;;;;;;16.57;12.67;;;13.00;99.90;;;;;;5112843;28;20186;-79
2020/12/23 00:07:32;;;;;;;14.83;11.87;;;13.20;99.90;;;;;;5112751;27;20311;-78
2020/12/23 00:09:58;;;;;;;13.80;11.87;;;13.10;99.90;;;;;;5114470;28;20209;-79
2020/12/23 00:12:23;;;;;;;13.27;11.97;;;13.00;99.90;;;;;;5107284;28;20229;-79
2020/12/23 00:14:49;;;;;;;13.20;11.50;;;13.10;99.90;;;;;;5092413;28;20192;-79
2020/12/23 00:17:19;;;;;;;12.73;11.37;;;13.10;99.90;;;;;;5104627;28;20187;-79
2020/12/23 00:19:48;;;;;;;12.20;10.33;;;13.20;99.90;;;;;;5110141;28;20717;-79
2020/12/23 00:22:17;;;;;;;12.37;10.13;;;13.30;99.90;;;;;;5113061;28;20179;-79
2020/12/23 00:24:43;;;;;;;11.73;10.53;;;13.40;99.90;;;;;;5113032;28;20223;-79
2020/12/23 00:27:09;;;;;;;12.50;10.17;;;13.30;99.90;;;;;;5111937;28;20264;-79
2020/12/23 00:29:35;;;;;;;11.37;10.27;;;13.40;99.90;;;;;;5113971;28;20232;-79
2020/12/23 00:32:01;;;;;;;12.63;9.70;;;13.50;99.90;;;;;;5110819;28;20188;-79
2020/12/23 00:34:26;;;;;;;12.47;9.40;;;13.60;99.90;;;;;;5092226;28;20288;-79
2020/12/23 00:36:56;;;;;;;14.30;9.07;;;13.60;99.90;;;;;;5098951;28;20206;-79
2020/12/23 00:39:22;;;;;;;10.30;9.17;;;13.60;99.90;;;;;;5105652;28;20197;-78
2020/12/23 00:41:48;;;;;;;10.27;9.03;;;13.60;99.90;;;;;;5086235;28;20189;-78
2020/12/23 00:44:14;;;;;;;10.30;8.83;;;13.50;99.90;;;;;;5107651;28;20264;-78
2020/12/23 00:46:40;;;;;;;10.83;9.20;;;13.40;99.90;;;;;;5102562;28;20229;-78
2020/12/23 00:49:05;;;;;;;9.53;8.53;;;13.60;99.90;;;;;;5087080;28;20196;-78
2020/12/23 00:51:31;;;;;;;11.27;9.43;;;13.60;99.90;;;;;;5106185;28;20674;-78
2020/12/23 00:53:57;;;;;;;10.63;8.77;;;13.50;99.90;;;;;;5112389;28;20549;-78
2020/12/23 00:56:23;;;;;;;11.27;9.47;;;13.50;99.90;;;;;;5101932;28;20265;-78
2020/12/23 00:58:48;;;;;;;12.13;9.47;;;13.40;99.90;;;;;;5113541;28;20214;-78
2020/12/23 01:01:14;;;;;;;13.23;11.37;;;13.50;99.90;;;;;;5095437;28;20266;-78
2020/12/23 01:03:40;;;;;;;14.87;10.23;;;13.50;99.90;;;;;;5112308;28;20525;-78
2020/12/23 01:06:09;;;;;;;12.40;11.03;;;13.20;99.90;;;;;;5112358;28;20185;-78
2020/12/23 01:08:35;;;;;;;14.73;12.10;;;13.20;99.90;;;;;;5113900;28;20183;-78
2020/12/23 01:11:04;;;;;;;14.67;10.80;;;13.20;99.90;;;;;;5113977;28;20185;-78
2020/12/23 01:13:30;;;;;;;16.80;12.17;;;13.00;99.90;;;;;;5095728;28;20216;-78
2020/12/23 01:15:57;;;;;;;20.00;12.83;;;12.80;99.90;;;;;;5106244;28;20210;-78
2020/12/23 01:18:23;;;;;;;14.07;12.20;;;12.80;99.90;;;;;;5107064;28;20190;-78
2020/12/23 01:20:49;;;;;;;18.77;12.97;;;12.90;99.90;;;;;;5126772;28;20218;-78
2020/12/23 01:23:14;;;;;;;20.83;14.47;;;12.90;99.90;;;;;;5096207;28;20207;-78
2020/12/23 01:25:40;;;;;;;21.27;14.83;;;13.00;99.90;;;;;;5113098;28;20178;-78
2020/12/23 01:28:06;;;;;;;15.33;12.57;;;13.00;99.90;;;;;;5095474;28;20186;-78
2020/12/23 01:30:31;;;;;;;19.27;13.70;;;12.90;99.90;;;;;;5096318;28;20214;-78
2020/12/23 01:32:57;;;;;;;20.50;14.13;;;12.90;99.90;;;;;;5112832;28;20547;-78
2020/12/23 01:35:22;;;;;;;16.63;13.30;;;13.00;99.90;;;;;;5112460;28;20559;-78
2020/12/23 01:37:48;;;;;;;17.53;13.30;;;13.10;99.90;;;;;;5095047;28;20187;-78
2020/12/23 01:40:13;;;;;;;18.07;13.50;;;13.20;99.90;;;;;;5084448;28;20202;-78
2020/12/23 01:42:39;;;;;;;18.07;13.53;;;13.10;99.90;;;;;;5108113;28;20189;-78
2020/12/23 01:45:06;;;;;;;18.93;13.53;;;13.20;99.90;;;;;;5116613;28;20731;-78
2020/12/23 01:47:33;;;;;;;16.77;12.43;;;13.10;99.90;;;;;;5116629;28;20242;-78
2020/12/23 01:50:00;;;;;;;17.50;12.57;;;13.20;99.90;;;;;;5118109;28;20249;-78
2020/12/23 01:52:27;;;;;;;16.17;12.83;;;13.40;99.90;;;;;;5115920;28;20536;-78
2020/12/23 01:54:54;;;;;;;14.30;11.70;;;13.50;99.90;;;;;;5096600;28;20327;-78
2020/12/23 01:57:20;;;;;;;15.13;12.10;;;13.40;99.90;;;;;;5108740;28;20216;-78
2020/12/23 01:59:47;;;;;;;17.53;12.50;;;13.40;99.90;;;;;;5116487;28;20677;-78
2020/12/23 02:02:33;;;;;;;15.23;12.50;;;13.30;99.90;;;;;;5117378;28;20182;-78
2020/12/23 02:05:00;;;;;;;16.40;12.60;;;13.30;99.90;;;;;;5107054;28;20175;-78
2020/12/23 02:07:26;;;;;;;15.40;12.33;;;13.50;99.90;;;;;;5117260;28;20205;-78
2020/12/23 02:09:54;;;;;;;13.73;11.90;;;13.60;99.90;;;;;;5117394;28;20211;-78
2020/12/23 02:12:20;;;;;;;14.10;11.13;;;13.40;99.90;;;;;;5115980;28;20218;-79
2020/12/23 02:14:47;;;;;;;16.03;11.03;;;13.40;99.90;;;;;;5115641;28;20281;-78
2020/12/23 02:17:13;;;;;;;10.63;9.57;;;13.60;99.90;;;;;;5116937;27;20185;-78
2020/12/23 02:19:51;;;;;;;10.97;9.87;;;13.50;99.90;;;;;;5117044;28;20242;-78
2020/12/23 02:22:30;;;;;;;10.17;9.00;;;13.60;99.90;;;;;;5114262;28;20183;-78
2020/12/23 02:24:55;;;;;;;8.43;7.47;;;13.50;99.90;;;;;;5116978;28;20634;-78
2020/12/23 02:27:22;;;;;;;8.63;7.43;;;13.50;99.90;;;;;;5098317;28;20189;-78
2020/12/23 02:29:51;;;;;;;7.93;7.23;;;13.40;99.90;;;;;;5105296;28;20211;-78
2020/12/23 02:32:18;;;;;;;7.33;6.53;;;13.40;99.90;;;;;;5114668;28;20622;-78
2020/12/23 02:34:44;;;;;;;7.80;6.90;;;13.40;99.90;;;;;;5104469;28;20180;-78
2020/12/23 02:37:10;;;;;;;6.33;5.73;;;13.40;99.90;;;;;;5116994;28;20193;-78
2020/12/23 02:39:42;;;;;;;6.80;5.63;;;13.50;99.90;;;;;;5109620;28;20205;-78
2020/12/23 02:42:09;;;;;;;6.67;5.30;;;13.50;99.90;;;;;;5100870;28;20569;-78
2020/12/23 02:44:35;;;;;;;5.77;4.47;;;13.40;99.90;;;;;;5096261;28;20182;-78
2020/12/23 02:47:08;;;;;;;3.93;3.57;;;13.40;99.90;;;;;;5109455;28;20264;-78
2020/12/23 02:49:34;;;;;;;4.67;3.60;;;13.60;99.90;;;;;;5104898;28;20181;-78
2020/12/23 02:52:00;;;;;;;5.00;3.47;;;13.50;99.90;;;;;;5077155;28;20637;-78
2020/12/23 02:54:25;;;;;;;4.43;2.70;;;13.50;99.90;;;;;;5101764;28;20711;-78
2020/12/23 02:56:51;;;;;;;2.50;2.30;;;13.50;99.90;;;;;;5098144;28;20177;-78
2020/12/23 02:59:18;;;;;;;2.00;1.83;;;13.40;99.90;;;;;;5114216;28;20197;-78
2020/12/23 03:01:44;;;;;;;3.47;1.80;;;13.40;99.90;;;;;;5114865;28;20224;-78
2020/12/23 03:04:10;;;;;;;3.13;1.70;;;13.30;99.90;;;;;;5115944;28;20169;-78
2020/12/23 03:06:36;;;;;;;1.67;1.57;;;13.30;99.90;;;;;;5114853;28;20543;-78
2020/12/23 03:09:07;;;;;;;2.73;1.47;;;13.30;99.90;;;;;;5097195;28;20180;-78
2020/12/23 03:11:33;;;;;;;3.07;1.53;;;13.30;99.90;;;;;;5104743;28;20236;-78
2020/12/23 03:13:59;;;;;;;2.40;1.30;;;13.30;99.90;;;;;;5077454;28;20185;-78
2020/12/23 03:16:25;;;;;;;1.27;1.20;;;13.30;99.90;;;;;;5094765;28;20182;-79
2020/12/23 03:18:51;;;;;;;1.20;1.10;;;13.20;99.90;;;;;;5095258;28;20198;-79
2020/12/23 03:21:17;;;;;;;1.13;1.03;;;13.20;99.90;;;;;;5077260;28;20178;-79
2020/12/23 03:23:43;;;;;;;1.37;1.20;;;13.30;99.90;;;;;;5108398;28;20545;-79
2020/12/23 03:26:08;;;;;;;1.03;1.00;;;13.20;99.90;;;;;;5114630;28;20564;-79
2020/12/23 03:28:34;;;;;;;1.27;1.17;;;13.30;99.90;;;;;;5080715;28;20625;-79
2020/12/23 03:31:01;;;;;;;1.10;1.00;;;13.30;99.90;;;;;;5114494;28;20235;-78
2020/12/23 03:33:27;;;;;;;0.90;0.90;;;13.30;99.90;;;;;;5083672;28;20684;-78
2020/12/23 03:35:53;;;;;;;1.77;0.93;;;13.30;99.90;;;;;;5114578;28;20197;-78
2020/12/23 03:38:19;;;;;;;1.30;1.20;;;13.20;99.90;;;;;;5114331;28;20180;-78
2020/12/23 03:40:44;;;;;;;4.20;2.60;;;13.10;99.90;;;;;;5114097;28;20772;-78
2020/12/23 03:43:10;;;;;;;3.77;2.70;;;13.00;99.90;;;;;;5114337;28;20206;-78
2020/12/23 03:45:36;;;;;;;7.77;4.70;;;13.00;99.90;;;;;;5094091;28;20179;-78
2020/12/23 03:48:02;;;;;;;8.77;5.33;;;12.90;99.90;;;;;;5093954;28;20182;-78
2020/12/23 03:50:28;;;;;;;10.27;6.33;;;12.90;99.90;;;;;;5098107;28;20183;-78
2020/12/23 03:52:53;;;;;;;10.77;6.97;;;13.00;99.90;;;;;;5094645;28;20245;-78
2020/12/23 03:55:19;;;;;;;12.67;7.70;;;12.90;99.90;;;;;;5093624;28;20253;-78
2020/12/23 03:57:44;;;;;;;13.50;7.17;;;12.80;99.90;;;;;;5093170;28;20641;-78
2020/12/23 04:00:11;;;;;;;10.03;6.10;;;12.70;99.90;;;;;;5076514;28;20232;-78
2020/12/23 04:02:38;;;;;;;8.87;6.07;;;12.70;99.90;;;;;;5076176;28;20177;-78
2020/12/23 04:05:04;;;;;;;9.57;5.67;;;12.80;99.90;;;;;;5107099;28;20641;-78
2020/12/23 04:07:30;;;;;;;6.57;4.73;;;12.90;99.90;;;;;;5096652;28;20187;-79
2020/12/23 04:09:56;;;;;;;6.90;4.77;;;12.90;99.90;;;;;;5093839;28;21992;-79
2020/12/23 04:12:21;;;;;;;6.67;4.13;;;12.90;99.90;;;;;;5093241;28;20261;-79
2020/12/23 04:14:47;;;;;;;5.53;3.60;;;13.00;99.90;;;;;;5088955;28;20507;-79
2020/12/23 04:17:13;;;;;;;6.90;3.33;;;13.00;99.90;;;;;;5114831;28;20192;-78
2020/12/23 04:19:38;;;;;;;6.77;3.57;;;13.00;99.90;;;;;;5079475;28;20238;-79
2020/12/23 04:22:04;;;;;;;4.90;3.57;;;13.00;99.90;;;;;;5113674;28;20191;-78
2020/12/23 04:24:30;;;;;;;5.10;3.47;;;13.10;99.90;;;;;;5111956;28;20196;-79
2020/12/23 04:26:56;;;;;;;4.53;3.50;;;13.10;99.90;;;;;;5104837;28;20178;-79
2020/12/23 04:29:22;;;;;;;6.30;3.20;;;13.00;99.90;;;;;;5114681;28;20198;-78
2020/12/23 04:31:47;;;;;;;4.17;2.90;;;13.00;99.90;;;;;;5112202;28;20230;-78
2020/12/23 04:34:13;;;;;;;4.83;2.60;;;12.90;99.90;;;;;;5092839;28;20517;-78
2020/12/23 04:36:39;;;;;;;3.77;2.47;;;12.80;99.90;;;;;;5093345;28;20264;-79
2020/12/23 04:39:04;;;;;;;3.43;2.30;;;12.80;99.90;;;;;;5113523;28;20212;-78
2020/12/23 04:41:34;;;;;;;2.80;2.23;;;12.90;99.90;;;;;;5114748;28;20198;-78
2020/12/23 04:44:04;;;;;;;5.80;1.93;;;12.90;99.90;;;;;;5099400;28;20213;-79
2020/12/23 04:46:34;;;;;;;3.13;2.20;;;12.90;99.90;;;;;;5112875;28;20550;-78
2020/12/23 04:49:00;;;;;;;2.93;1.80;;;12.90;99.90;;;;;;5114320;28;20224;-79
2020/12/23 04:51:31;;;;;;;2.70;1.97;;;12.90;99.90;;;;;;5091786;28;20283;-79
2020/12/23 04:53:59;;;;;;;2.37;2.10;;;13.00;99.90;;;;;;5093817;28;20575;-79
2020/12/23 04:56:29;;;;;;;2.60;2.13;;;12.90;99.90;;;;;;5112254;28;20229;-78
2020/12/23 04:58:56;;;;;;;2.20;1.80;;;12.90;99.90;;;;;;5112910;28;20658;-79
2020/12/23 05:01:22;;;;;;;2.83;1.60;;;12.90;99.90;;;;;;5111976;28;20178;-79
2020/12/23 05:03:48;;;;;;;2.17;1.30;;;12.90;99.90;;;;;;5112548;28;20185;-79
2020/12/23 05:06:14;;;;;;;2.27;1.50;;;12.90;99.90;;;;;;5110949;28;20204;-79
2020/12/23 05:08:39;;;;;;;1.23;1.13;;;13.00;99.90;;;;;;5093138;28;20193;-78
2020/12/23 05:11:06;;;;;;;1.43;1.33;;;13.00;99.90;;;;;;5081593;28;20188;-79
2020/12/23 05:13:32;;;;;;;3.53;1.30;;;13.00;99.90;;;;;;5107845;28;20195;-79
2020/12/23 05:15:58;;;;;;;1.57;1.20;;;13.00;99.90;;;;;;5102686;28;20181;-79
2020/12/23 05:18:32;;;;;;;2.00;1.20;;;13.10;99.90;;;;;;5109513;28;20195;-78
2020/12/23 05:20:57;;;;;;;1.00;1.00;;;13.20;99.90;;;;;;5111982;28;20552;-78
2020/12/23 05:23:23;;;;;;;2.07;1.30;;;13.20;99.90;;;;;;5110650;28;20264;-78
2020/12/23 05:25:49;;;;;;;2.10;1.10;;;13.10;99.90;;;;;;5111050;28;20181;-77
2020/12/23 05:28:16;;;;;;;2.13;1.67;;;13.20;99.90;;;;;;5086090;28;20553;-78
2020/12/23 05:30:43;;;;;;;1.30;1.20;;;13.20;99.90;;;;;;5075489;28;20201;-77
2020/12/23 05:33:11;;;;;;;3.50;1.50;;;13.20;99.90;;;;;;5093112;28;20182;-78
2020/12/23 05:35:37;;;;;;;3.67;1.70;;;13.10;99.90;;;;;;5101952;28;20197;-78
2020/12/23 05:38:04;;;;;;;2.30;1.50;;;13.00;99.90;;;;;;5113518;28;20200;-78
2020/12/23 05:40:30;;;;;;;3.20;1.60;;;12.80;99.90;;;;;;5113099;28;20212;-78
2020/12/23 05:42:57;;;;;;;1.57;1.40;;;12.90;99.90;;;;;;5113297;28;20238;-77
2020/12/23 05:45:26;;;;;;;3.07;1.70;;;13.00;99.90;;;;;;5090023;28;20701;-78
2020/12/23 05:47:53;;;;;;;1.73;1.43;;;13.00;99.90;;;;;;5111958;28;20202;-77
2020/12/23 05:50:19;;;;;;;1.50;1.40;;;13.10;99.90;;;;;;5092355;28;20637;-78
2020/12/23 05:52:46;;;;;;;1.70;1.43;;;13.00;99.90;;;;;;5094365;28;20191;-78
2020/12/23 05:55:16;;;;;;;3.80;1.50;;;13.00;99.90;;;;;;5092850;28;20181;-78
2020/12/23 05:57:42;;;;;;;1.90;1.40;;;13.00;99.90;;;;;;5111711;28;20211;-77
2020/12/23 06:00:09;;;;;;;2.50;1.50;;;12.90;99.90;;;;;;5111925;28;20669;-77
2020/12/23 06:02:49;;;;;;;1.83;1.50;;;13.00;99.90;;;;;;5112416;28;20192;-77
2020/12/23 06:05:19;;;;;;;3.03;1.60;;;13.00;99.90;;;;;;5092284;28;20323;-78
2020/12/23 06:07:50;;;;;;;3.43;1.70;;;13.00;99.90;;;;;;5106783;28;20234;-77
2020/12/23 06:10:20;;;;;;;3.33;2.13;;;12.90;99.90;;;;;;5094221;28;20204;-78
2020/12/23 06:12:48;;;;;;;2.70;1.90;;;13.00;99.90;;;;;;5112562;28;20201;-77
2020/12/23 06:15:16;;;;;;;2.47;1.80;;;13.10;99.90;;;;;;5111968;28;20521;-77
2020/12/23 06:17:45;;;;;;;2.00;1.83;;;13.00;99.90;;;;;;5111698;28;20193;-78
2020/12/23 06:20:14;;;;;;;3.20;1.87;;;13.00;99.90;;;;;;5105053;28;20247;-78
2020/12/23 06:22:41;;;;;;;2.30;2.10;;;12.90;99.90;;;;;;5109764;28;20191;-77
2020/12/23 06:25:07;;;;;;;3.37;2.30;;;13.00;99.90;;;;;;5113004;28;20209;-78
2020/12/23 06:27:33;;;;;;;2.83;2.47;;;13.20;99.90;;;;;;5098804;28;20206;-78
2020/12/23 06:29:59;;;;;;;3.57;2.60;;;13.20;99.90;;;;;;5079296;28;20204;-78
2020/12/23 06:32:25;;;;;;;3.03;2.83;;;13.10;99.90;;;;;;5094951;28;20250;-78
2020/12/23 06:34:56;;;;;;;5.80;3.30;;;13.00;99.90;;;;;;5078473;28;20210;-78
2020/12/23 06:37:25;;;;;;;3.87;2.70;;;13.00;99.90;;;;;;5110229;28;20585;-78
2020/12/23 06:39:52;;;;;;;5.03;3.33;;;13.10;99.90;;;;;;5117045;28;20194;-77
2020/12/23 06:42:22;;;;;;;3.00;2.80;;;13.10;99.90;;;;;;5098332;28;20216;-78
2020/12/23 06:44:47;;;;;;;3.27;2.87;;;13.10;99.90;;;;;;5114960;28;20180;-78
2020/12/23 06:47:19;;;;;;;3.47;2.53;;;13.10;99.90;;;;;;5116332;28;20237;-78
2020/12/23 06:49:59;;;;;;;4.83;3.00;;;13.10;99.90;;;;;;5116798;28;20252;-78
2020/12/23 06:52:26;;;;;;;3.93;3.20;;;13.30;99.90;;;;;;5114813;28;20190;-78
2020/12/23 06:54:53;;;;;;;2.83;2.63;;;13.10;99.90;;;;;;5116885;28;20169;-78
2020/12/23 06:57:37;;;;;;;2.70;2.50;;;13.20;99.90;;;;;;5116106;28;20665;-78
2020/12/23 07:00:15;;;;;;;4.27;2.87;;;13.00;99.90;;;;;;5095772;28;20707;-78
2020/12/23 07:02:40;;;;;;;2.90;2.60;;;13.00;99.90;;;;;;5097525;28;20184;-78
2020/12/23 07:05:13;;;;;;;3.17;2.60;;;13.00;99.90;;;;;;5094677;28;20187;-78
2020/12/23 07:07:41;;;;;;;4.97;3.00;;;13.00;99.90;;;;;;5091266;28;20230;-78
2020/12/23 07:10:18;;;;;;;5.37;3.40;;;13.10;99.90;;;;;;5115480;28;20267;-77
2020/12/23 07:13:03;;;;;;;4.33;3.80;;;13.20;99.90;;;;;;5077641;28;20232;-78
2020/12/23 07:15:40;;;;;;;5.87;3.50;;;13.10;99.90;;;;;;5096962;28;20613;-78
2020/12/23 07:18:13;;;;;;;3.87;3.53;;;13.00;99.90;;;;;;5116457;28;20165;-78
2020/12/23 07:21:22;;;;;;;3.80;3.50;;;13.10;99.90;;;;;;5098171;28;20232;-77
2020/12/23 07:23:48;;;;;;;8.27;3.90;;;13.30;99.90;;;;;;5055324;28;20190;-78
2020/12/23 07:26:15;;;;;;;4.33;3.93;;;13.30;99.90;;;;;;5109971;27;20188;-78
2020/12/23 07:28:42;;;;;;;5.00;3.93;;;13.40;99.90;;;;;;5100431;28;20213;-78
2020/12/23 07:31:11;;;;;;;4.43;4.00;;;13.40;99.90;;;;;;5115001;28;20178;-78
2020/12/23 07:33:38;;;;;;;4.63;4.23;;;13.40;99.90;;;;;;5102037;28;20175;-78
2020/12/23 07:36:04;;;;;;;5.17;4.27;;;13.30;99.90;;;;;;5115257;28;20191;-78
2020/12/23 07:38:34;;;;;;;8.70;4.70;;;13.20;99.90;;;;;;5113546;28;20662;-78
2020/12/23 07:41:01;;;;;;;5.07;4.37;;;13.40;99.90;;;;;;5115529;28;20536;-77
2020/12/23 07:43:27;;;;;;;7.40;4.80;;;13.30;99.90;;;;;;5113096;28;20188;-78
2020/12/23 07:45:53;;;;;;;6.03;4.17;;;13.20;99.90;;;;;;5111176;28;20619;-78
2020/12/23 07:48:21;;;;;;;7.13;4.37;;;13.00;99.90;;;;;;5114033;28;20248;-77
2020/12/23 07:50:54;;;;;;;4.40;4.00;;;12.90;99.90;;;;;;5114758;28;20560;-78
2020/12/23 07:53:28;;;;;;;5.43;4.80;;;12.70;99.90;;;;;;5115529;28;20163;-77
2020/12/23 07:55:59;;;;;;;4.20;3.77;;;12.80;99.90;;;;;;5113796;28;20204;-77
2020/12/23 07:58:25;;;;;;;4.37;3.97;;;12.70;99.90;;;;;;5113938;28;20626;-77
2020/12/23 08:00:50;;;;;;;4.80;4.30;;;12.70;99.90;;;;;;5114652;28;20193;-77
2020/12/23 08:03:27;;;;;;;4.73;4.33;;;12.70;99.90;;;;;;5114983;28;20182;-77
2020/12/23 08:06:10;;;;;;;4.77;4.20;;;12.70;99.90;;;;;;5114420;28;20189;-77
2020/12/23 08:08:40;;;;;;;4.30;3.90;;;12.60;99.90;;;;;;5096694;28;20174;-77
2020/12/23 08:11:07;;;;;;;5.53;4.47;;;12.70;99.90;;;;;;5099276;28;20175;-77
2020/12/23 08:13:33;;;;;;;4.73;4.33;;;12.70;99.90;;;;;;5090652;28;20217;-77
2020/12/23 08:16:08;;;;;;;5.50;4.83;;;12.90;99.90;;;;;;5110024;28;20222;-77
2020/12/23 08:18:35;;;;;;;5.40;4.30;;;12.80;99.90;;;;;;5101365;28;20176;-77
2020/12/23 08:21:10;;;;;;;6.47;4.10;;;12.80;99.90;;;;;;5114294;28;20223;-77
2020/12/23 08:23:36;;;;;;;4.70;4.30;;;12.80;99.90;;;;;;5114430;28;20188;-77
2020/12/23 08:26:03;;;;;;;4.10;3.80;;;12.90;99.90;;;;;;5113243;28;20234;-77
2020/12/23 08:28:29;;;;;;;4.03;3.53;;;13.00;99.90;;;;;;5100213;28;20186;-77
2020/12/23 08:30:55;;;;;;;3.20;2.93;;;13.00;99.90;;;;;;5105246;28;20260;-77
2020/12/23 08:33:22;;;;;;;3.00;2.73;;;13.00;99.90;;;;;;5092442;28;20648;-77
2020/12/23 08:35:50;;;;;;;2.73;2.53;;;12.90;99.90;;;;;;5086311;28;20288;-77
2020/12/23 08:38:21;;;;;;;2.40;2.20;;;12.90;99.90;;;;;;5104542;28;20306;-77
2020/12/23 08:40:52;;;;;;;2.30;2.10;;;12.90;99.90;;;;;;5098943;28;20213;-77
2020/12/23 08:43:23;;;;;;;2.20;2.00;;;13.00;99.90;;;;;;5101781;28;20180;-77
2020/12/23 08:45:50;;;;;;;2.30;2.10;;;13.00;99.90;;;;;;5113302;28;20187;-77
2020/12/23 08:48:24;;;;;;;1.70;1.60;;;13.10;99.90;;;;;;5114850;28;20199;-77
2020/12/23 08:51:00;;;;;;;1.77;1.63;;;13.10;99.90;;;;;;5093798;28;20185;-77
2020/12/23 08:53:33;;;;;;;2.10;1.90;;;13.10;99.90;;;;;;5051150;27;20258;-77
2020/12/23 08:56:19;;;;;;;2.27;1.90;;;13.10;99.90;;;;;;5091155;28;20951;-77
2020/12/23 08:58:49;;;;;;;1.80;1.67;;;13.00;99.90;;;;;;5114964;27;20200;-78
2020/12/23 09:01:21;;;;;;;3.10;1.73;;;13.10;99.90;;;;;;5110709;28;20606;-77
2020/12/23 09:04:09;;;;;;;1.80;1.63;;;13.10;99.90;;;;;;5117428;27;20640;-77
2020/12/23 09:06:36;;;;;;;3.63;1.67;;;13.10;99.90;;;;;;5105704;28;20290;-77
2020/12/23 09:09:06;;;;;;;2.70;1.97;;;13.00;99.90;;;;;;5097781;28;20178;-77
2020/12/23 09:11:52;;;;;;;2.93;1.90;;;13.10;99.90;;;;;;5113407;27;20271;-77
2020/12/23 09:14:26;;;;;;;1.80;1.50;;;13.10;99.90;;;;;;5108408;28;20190;-77
2020/12/23 09:17:19;;;;;;;2.30;2.07;;;13.10;99.90;;;;;;5108440;28;20226;-77
2020/12/23 09:19:55;;;;;;;2.50;2.30;;;13.10;99.90;;;;;;5111949;28;20206;-77
2020/12/23 09:22:36;;;;;;;3.70;3.40;;;13.00;99.90;;;;;;5092915;28;20523;-77
2020/12/23 09:25:14;;;;;;;3.83;3.53;;;13.10;99.90;;;;;;5107452;28;20181;-77
2020/12/23 09:27:40;;;;;;;3.70;3.40;;;13.10;99.90;;;;;;5110661;28;20209;-78
2020/12/23 09:30:06;;;;;;;3.80;3.50;;;13.10;99.90;;;;;;5099901;28;20239;-77
2020/12/23 09:32:32;;;;;;;8.83;3.27;;;13.10;99.90;;;;;;5104932;28;20185;-76
2020/12/23 09:35:15;;;;;;;3.73;3.53;;;13.20;99.90;;;;;;5111278;28;20187;-77
2020/12/23 09:37:43;;;;;;;3.77;3.47;;;13.10;99.90;;;;;;5082819;28;20193;-77
2020/12/23 09:40:10;;;;;;;3.73;3.43;;;13.00;99.90;;;;;;5096586;28;20263;-77
2020/12/23 09:42:35;;;;;;;3.93;3.60;;;13.00;99.90;;;;;;5107640;28;20186;-77
2020/12/23 09:45:01;;;;;;;4.07;2.83;;;13.00;99.90;;;;;;5086054;28;20185;-78
2020/12/23 09:47:27;;;;;;;4.77;3.10;;;13.00;99.90;;;;;;5101015;28;20558;-78
2020/12/23 09:49:53;;;;;;;5.00;2.60;;;13.00;99.90;;;;;;5084862;28;20213;-78
2020/12/23 09:52:19;;;;;;;3.80;2.23;;;13.00;99.90;;;;;;5097227;28;20183;-78
2020/12/23 09:54:44;;;;;;;2.77;1.90;;;13.00;99.90;;;;;;5090985;28;20186;-78
2020/12/23 09:57:10;;;;;;;2.73;1.70;;;13.00;99.90;;;;;;5083510;28;20183;-78
2020/12/23 09:59:35;;;;;;;4.83;2.20;;;13.00;99.90;;;;;;5108979;28;20208;-77
2020/12/23 10:02:01;;;;;;;2.17;1.70;;;13.00;99.90;;;;;;5110026;28;20280;-77
2020/12/23 10:04:26;;;;;;;1.67;1.50;;;13.00;99.90;;;;;;5110384;28;20185;-77
2020/12/23 10:06:52;;;;;;;4.73;1.70;;;13.10;99.90;;;;;;5098765;28;20640;-77
2020/12/23 10:09:18;;;;;;;4.20;2.00;;;13.20;99.90;;;;;;5110297;28;20213;-77
2020/12/23 10:11:43;;;;;;;2.30;1.90;;;13.20;99.90;;;;;;5078871;28;20183;-77
2020/12/23 10:14:09;;;;;;;5.47;2.60;;;13.20;99.90;;;;;;5115043;28;20261;-77
2020/12/23 10:16:35;;;;;;;5.50;3.27;;;13.20;99.90;;;;;;5091381;28;20212;-77
2020/12/23 10:19:02;;;;;;;4.47;3.50;;;13.40;99.90;;;;;;5095926;28;20213;-77
2020/12/23 10:21:28;;;;;;;7.80;3.27;;;13.50;99.90;;;;;;5111396;27;20228;-77
2020/12/23 10:23:54;;;;;;;4.50;2.90;;;13.50;99.90;;;;;;5117099;27;20176;-77
2020/12/23 10:26:20;;;;;;;5.33;3.30;;;13.30;99.90;;;;;;5123536;27;20205;-77
2020/12/23 10:28:46;;;;;;;4.40;3.00;;;13.30;99.90;;;;;;5114402;28;20196;-77
2020/12/23 10:31:12;;;;;;;6.17;3.20;;;13.40;99.90;;;;;;5094941;28;20190;-77
2020/12/23 10:33:38;;;;;;;4.37;3.13;;;13.40;99.90;;;;;;5111329;28;20627;-78
2020/12/23 10:36:09;;;;;;;4.83;3.17;;;13.50;99.90;;;;;;5119847;27;20203;-77
2020/12/23 10:38:35;;;;;;;6.37;3.30;;;13.50;99.90;;;;;;5117399;27;20275;-77
2020/12/23 10:41:01;;;;;;;4.23;2.70;;;13.40;99.90;;;;;;5114155;28;20550;-77
2020/12/23 10:43:26;;;;;;;4.33;3.20;;;13.40;99.90;;;;;;5095432;28;20181;-77
2020/12/23 10:45:52;;;;;;;3.97;3.10;;;13.40;99.90;;;;;;5104500;28;20594;-77
2020/12/23 10:48:18;;;;;;;3.40;3.10;;;13.40;99.90;;;;;;5095701;28;20197;-77
2020/12/23 10:50:45;;;;;;;7.17;3.20;;;13.50;99.90;;;;;;5114495;28;20176;-77
2020/12/23 10:53:10;;;;;;;4.63;3.07;;;13.60;99.90;;;;;;5115873;28;20192;-77
2020/12/23 10:55:36;;;;;;;3.43;3.13;;;13.50;99.90;;;;;;5112683;28;20640;-77
2020/12/23 10:58:02;;;;;;;3.53;3.07;;;13.40;99.90;;;;;;5115324;28;20196;-78
2020/12/23 11:00:28;;;;;;;4.30;3.40;;;13.40;99.90;;;;;;5114985;27;20205;-78
2020/12/23 11:02:54;;;;;;;4.17;3.53;;;13.40;99.90;;;;;;5114236;28;20266;-78
2020/12/23 11:05:20;;;;;;;3.67;3.00;;;13.40;99.90;;;;;;5112607;28;20176;-77
2020/12/23 11:07:48;;;;;;;3.93;3.03;;;13.40;99.90;;;;;;5114394;28;20181;-77
2020/12/23 11:10:14;;;;;;;3.47;2.70;;;13.40;99.90;;;;;;5097986;27;20267;-77
2020/12/23 11:12:40;;;;;;;2.97;2.57;;;13.30;99.90;;;;;;5127322;27;20183;-77
2020/12/23 11:15:06;;;;;;;2.20;2.00;;;13.20;99.90;;;;;;5093492;28;20213;-77
2020/12/23 11:17:34;;;;;;;2.07;1.97;;;13.10;99.90;;;;;;5078801;28;20249;-78
2020/12/23 11:20:00;;;;;;;2.53;2.33;;;13.20;99.90;;;;;;5081504;28;20202;-77
2020/12/23 11:22:26;;;;;;;2.80;2.00;;;13.20;99.90;;;;;;5097794;28;20201;-78
2020/12/23 11:24:52;;;;;;;3.53;2.07;;;13.10;99.90;;;;;;5089765;28;20231;-78
2020/12/23 11:27:18;;;;;;;4.67;2.40;;;13.10;99.90;;;;;;5113986;28;20477;-78
2020/12/23 11:29:44;;;;;;;5.33;2.53;;;13.10;99.90;;;;;;5111877;28;20190;-78
2020/12/23 11:32:09;;;;;;;4.17;2.23;;;13.00;99.90;;;;;;5106776;28;20208;-78
2020/12/23 11:34:35;;;;;;;2.70;2.50;;;12.80;99.90;;;;;;5095612;28;20186;-78
2020/12/23 11:37:01;;;;;;;3.23;2.10;;;12.80;99.90;;;;;;5113924;28;20194;-78
2020/12/23 11:39:28;;;;;;;3.63;2.67;;;12.90;99.90;;;;;;5119902;27;20197;-78
2020/12/23 11:41:57;;;;;;;4.07;2.30;;;12.90;99.90;;;;;;5106155;28;20622;-78
2020/12/23 11:44:24;;;;;;;3.47;2.40;;;12.90;99.90;;;;;;5114586;28;20180;-77
2020/12/23 11:46:50;;;;;;;2.40;2.20;;;13.00;99.90;;;;;;5099089;28;20187;-78
2020/12/23 11:49:15;;;;;;;4.10;2.13;;;13.10;99.90;;;;;;5099331;28;20243;-78
2020/12/23 11:51:41;;;;;;;1.70;1.57;;;13.10;99.90;;;;;;5112669;28;20578;-78
2020/12/23 11:54:07;;;;;;;3.63;1.93;;;13.20;99.90;;;;;;5112471;28;20258;-78
2020/12/23 11:56:33;;;;;;;2.33;2.10;;;13.20;99.90;;;;;;5108948;28;20185;-78
2020/12/23 11:58:59;;;;;;;3.53;2.03;;;13.00;99.90;;;;;;5102702;28;20683;-78
2020/12/23 12:01:25;;;;;;;4.00;2.23;;;12.90;99.90;;;;;;5092368;28;20215;-78
2020/12/23 12:03:50;;;;;;;3.10;2.50;;;13.00;99.90;;;;;;5095198;28;20590;-78
2020/12/23 12:06:18;;;;;;;4.00;2.90;;;13.10;99.90;;;;;;5095311;28;20198;-78
2020/12/23 12:08:43;;;;;;;6.80;3.70;;;12.90;99.90;;;;;;5108610;28;20169;-77
2020/12/23 12:11:09;;;;;;;6.43;3.30;;;12.90;99.90;;;;;;5106167;28;20262;-77
2020/12/23 12:13:35;;;;;;;4.70;3.53;;;12.90;99.90;;;;;;5106895;28;20260;-77
2020/12/23 12:16:00;;;;;;;9.47;4.47;;;13.00;99.90;;;;;;5111294;28;20578;-78
2020/12/23 12:18:26;;;;;;;9.50;4.00;;;13.00;99.90;;;;;;5114113;28;20526;-78
2020/12/23 12:20:51;;;;;;;5.27;3.80;;;13.00;99.90;;;;;;5102721;28;20253;-78
2020/12/23 12:23:17;;;;;;;5.70;4.30;;;13.10;99.90;;;;;;5090817;28;20234;-77
2020/12/23 12:25:43;;;;;;;7.97;4.70;;;13.20;99.90;;;;;;5113291;28;20172;-78
2020/12/23 12:28:08;;;;;;;6.00;4.00;;;13.10;99.90;;;;;;5112593;28;20260;-78
2020/12/23 12:30:35;;;;;;;6.37;4.43;;;13.20;99.90;;;;;;5113657;28;20560;-78
2020/12/23 12:33:01;;;;;;;4.27;3.73;;;13.20;99.90;;;;;;5106883;28;20184;-78
2020/12/23 12:35:27;;;;;;;5.07;3.37;;;13.30;99.90;;;;;;5095018;28;20207;-77
2020/12/23 12:37:53;;;;;;;5.87;3.70;;;13.40;99.90;;;;;;5109492;28;20205;-77
2020/12/23 12:40:19;;;;;;;4.30;3.37;;;13.40;99.90;;;;;;5110811;28;20208;-77
2020/12/23 12:42:44;;;;;;;4.10;3.40;;;13.40;99.90;;;;;;5111159;28;20182;-78
2020/12/23 12:45:10;;;;;;;6.37;3.23;;;13.40;99.90;;;;;;5108926;28;20181;-77